createdAt,value
2023-01-29T00:01:55.159Z,4.97
2023-01-29T00:04:22.172Z,5.40
2023-01-29T00:06:49.015Z,4.57
2023-01-29T00:09:15.821Z,4.80
2023-01-29T00:11:42.733Z,5.05
2023-01-29T00:14:09.711Z,4.88
2023-01-29T00:16:36.590Z,4.70
2023-01-29T00:19:04.131Z,5.75
2023-01-29T00:21:32.197Z,5.15
2023-01-29T00:23:59.717Z,4.95
2023-01-29T00:26:27.576Z,4.80
2023-01-29T00:28:55.128Z,4.47
2023-01-29T00:31:24.068Z,4.75
2023-01-29T00:33:51.774Z,5.25
2023-01-29T00:36:19.996Z,5.97
2023-01-29T00:38:54.601Z,4.88
2023-01-29T00:41:41.697Z,4.38
2023-01-29T00:44:27.078Z,4.82
2023-01-29T00:46:54.849Z,4.75
2023-01-29T00:49:22.118Z,4.57
2023-01-29T00:52:09.043Z,3.70
2023-01-29T00:54:36.483Z,4.93
2023-01-29T00:57:04.264Z,5.50
2023-01-29T00:59:31.923Z,4.40
2023-01-29T01:02:17.305Z,4.32
2023-01-29T01:04:44.107Z,4.30
2023-01-29T01:09:55.309Z,5.10
2023-01-29T01:12:22.489Z,5.22
2023-01-29T01:14:49.570Z,5.18
2023-01-29T01:17:16.459Z,5.35
2023-01-29T01:19:43.540Z,4.43
2023-01-29T01:22:10.514Z,5.75
2023-01-29T01:24:37.653Z,4.65
2023-01-29T01:27:04.965Z,5.43
2023-01-29T01:29:31.956Z,5.30
2023-01-29T01:31:59.396Z,5.05
2023-01-29T01:34:27.226Z,5.70
2023-01-29T01:36:56.023Z,4.95
2023-01-29T01:39:23.747Z,5.75
2023-01-29T01:41:51.183Z,5.82
2023-01-29T01:44:52.143Z,4.70
2023-01-29T01:47:29.374Z,4.38
2023-01-29T01:49:57.375Z,4.40
2023-01-29T01:52:24.970Z,4.88
2023-01-29T01:54:52.175Z,5.97
2023-01-29T01:57:25.108Z,5.53
2023-01-29T02:00:10.158Z,5.15
2023-01-29T02:03:04.993Z,4.03
2023-01-29T02:05:52.221Z,5.63
2023-01-29T02:09:11.754Z,4.32
2023-01-29T02:11:39.018Z,5.22
2023-01-29T02:14:05.926Z,5.60
2023-01-29T02:16:37.045Z,4.80
2023-01-29T02:19:07.167Z,4.47
2023-01-29T02:22:00.794Z,5.05
2023-01-29T02:24:41.067Z,4.82
2023-01-29T02:27:12.557Z,4.97
2023-01-29T02:30:00.447Z,4.50
2023-01-29T02:32:31.840Z,5.68
2023-01-29T02:35:29.211Z,4.63
2023-01-29T02:38:09.656Z,5.43
2023-01-29T02:40:44.110Z,4.28
2023-01-29T02:43:27.376Z,4.63
2023-01-29T02:46:01.756Z,5.20
2023-01-29T02:48:39.060Z,4.45
2023-01-29T02:51:11.019Z,5.60
2023-01-29T02:54:30.438Z,5.13
2023-01-29T02:57:03.949Z,4.93
2023-01-29T02:59:39.533Z,4.80
2023-01-29T03:02:12.760Z,4.20
2023-01-29T03:04:47.252Z,3.97
2023-01-29T03:07:38.211Z,5.70
2023-01-29T03:10:12.329Z,4.25
2023-01-29T03:12:40.618Z,4.13
2023-01-29T03:15:17.166Z,3.80
2023-01-29T03:18:07.589Z,4.05
2023-01-29T03:20:38.856Z,3.90
2023-01-29T03:23:16.360Z,3.88
2023-01-29T03:26:02.499Z,3.42
2023-01-29T03:28:50.694Z,3.60
2023-01-29T03:31:37.038Z,3.65
2023-01-29T03:34:10.259Z,2.90
2023-01-29T03:36:45.427Z,2.92
2023-01-29T03:39:14.311Z,2.78
2023-01-29T03:41:50.090Z,2.55
2023-01-29T03:44:52.915Z,3.80
2023-01-29T03:47:43.864Z,2.60
2023-01-29T03:50:48.110Z,3.03
2023-01-29T03:53:48.185Z,2.80
2023-01-29T03:56:39.648Z,2.88
2023-01-29T03:59:18.845Z,3.10
2023-01-29T04:02:10.796Z,2.47
2023-01-29T04:04:39.379Z,3.55
2023-01-29T04:07:27.112Z,3.20
2023-01-29T04:10:10.163Z,2.40
2023-01-29T04:12:42.860Z,3.08
2023-01-29T04:15:15.540Z,2.88
2023-01-29T04:17:47.269Z,2.20
2023-01-29T04:20:28.173Z,2.60
2023-01-29T04:22:54.996Z,2.72
2023-01-29T04:25:31.910Z,2.53
2023-01-29T04:28:28.767Z,2.42
2023-01-29T04:30:59.800Z,2.72
2023-01-29T04:33:38.304Z,2.00
2023-01-29T04:36:26.597Z,2.53
2023-01-29T04:39:19.233Z,2.63
2023-01-29T04:41:55.036Z,2.67
2023-01-29T04:47:32.043Z,2.47
2023-01-29T04:50:13.013Z,2.13
2023-01-29T04:52:54.451Z,2.95
2023-01-29T04:55:36.053Z,2.72
2023-01-29T04:58:05.751Z,2.88
2023-01-29T05:00:39.365Z,2.65
2023-01-29T05:03:06.437Z,2.47
2023-01-29T05:05:33.346Z,2.45
2023-01-29T05:08:00.371Z,2.70
2023-01-29T05:10:27.366Z,2.35
2023-01-29T05:13:01.235Z,2.85
2023-01-29T05:15:33.881Z,2.72
2023-01-29T05:18:03.189Z,2.70
2023-01-29T05:20:34.404Z,2.60
2023-01-29T05:23:01.148Z,2.30
2023-01-29T05:25:30.337Z,2.88
2023-01-29T05:28:07.294Z,2.35
2023-01-29T05:30:36.351Z,2.90
2023-01-29T05:33:04.860Z,3.00
2023-01-29T05:35:31.771Z,2.55
2023-01-29T05:37:58.699Z,3.83
2023-01-29T05:40:25.656Z,2.75
2023-01-29T05:42:52.408Z,3.17
2023-01-29T05:45:19.794Z,2.78
2023-01-29T05:47:47.241Z,3.00
2023-01-29T05:50:15.137Z,3.03
2023-01-29T05:52:42.359Z,2.45
2023-01-29T05:55:10.497Z,2.55
2023-01-29T05:57:37.710Z,2.78
2023-01-29T06:00:05.139Z,3.38
2023-01-29T06:02:39.611Z,3.72
2023-01-29T06:05:06.812Z,3.15
2023-01-29T06:07:33.735Z,3.45
2023-01-29T06:10:00.665Z,2.95
2023-01-29T06:12:27.896Z,2.83
2023-01-29T06:14:54.581Z,2.58
2023-01-29T06:17:21.479Z,3.72
2023-01-29T06:19:48.211Z,3.45
2023-01-29T06:22:15.065Z,3.72
2023-01-29T06:24:41.934Z,3.33
2023-01-29T06:27:08.790Z,3.42
2023-01-29T06:29:36.540Z,3.40
2023-01-29T06:32:03.621Z,3.83
2023-01-29T06:34:30.519Z,3.17
2023-01-29T06:36:57.399Z,3.80
2023-01-29T06:39:24.134Z,2.97
2023-01-29T06:41:50.954Z,3.65
2023-01-29T06:44:17.774Z,4.18
2023-01-29T06:46:44.614Z,3.35
2023-01-29T06:49:11.435Z,3.65
2023-01-29T06:51:38.300Z,3.55
2023-01-29T06:54:06.498Z,4.13
2023-01-29T06:56:33.242Z,2.65
2023-01-29T06:59:00.223Z,3.60
2023-01-29T07:01:35.618Z,3.30
2023-01-29T07:04:03.050Z,3.13
2023-01-29T07:06:30.592Z,3.83
2023-01-29T07:08:57.398Z,4.10
2023-01-29T07:11:24.279Z,4.20
2023-01-29T07:13:51.150Z,3.22
2023-01-29T07:16:19.314Z,4.05
2023-01-29T07:18:46.301Z,3.75
2023-01-29T07:21:13.183Z,4.47
2023-01-29T07:23:39.931Z,4.32
2023-01-29T07:26:07.465Z,3.65
2023-01-29T07:28:38.142Z,4.13
2023-01-29T07:31:05.204Z,3.65
2023-01-29T07:33:32.183Z,4.38
2023-01-29T07:35:59.237Z,4.47
2023-01-29T07:38:26.125Z,4.50
2023-01-29T07:40:53.515Z,3.95
2023-01-29T07:43:20.891Z,4.43
2023-01-29T07:45:47.743Z,4.22
2023-01-29T07:48:14.545Z,4.30
2023-01-29T07:50:41.534Z,3.97
2023-01-29T07:53:14.055Z,4.35
2023-01-29T07:55:41.485Z,4.40
2023-01-29T07:58:09.125Z,4.60
2023-01-29T08:00:36.624Z,4.65
2023-01-29T08:03:11.438Z,4.28
2023-01-29T08:05:38.398Z,4.60
2023-01-29T08:08:07.297Z,4.60
2023-01-29T08:10:39.252Z,5.38
2023-01-29T08:13:06.809Z,4.63
2023-01-29T08:15:34.628Z,4.88
2023-01-29T08:18:02.777Z,5.38
2023-01-29T08:20:30.026Z,5.93
2023-01-29T08:23:05.365Z,5.40
2023-01-29T08:25:32.689Z,4.43
2023-01-29T08:28:00.812Z,3.85
2023-01-29T08:30:29.805Z,5.38
2023-01-29T08:32:56.649Z,5.47
2023-01-29T08:35:23.723Z,5.35
2023-01-29T08:37:55.015Z,5.65
2023-01-29T08:40:22.419Z,5.68
2023-01-29T08:42:49.211Z,5.13
2023-01-29T08:45:16.057Z,4.80
2023-01-29T08:47:49.920Z,5.20
2023-01-29T08:50:17.972Z,5.25
2023-01-29T08:52:45.581Z,4.50
2023-01-29T08:55:12.893Z,4.15
2023-01-29T08:57:40.308Z,5.70
2023-01-29T09:00:10.135Z,5.63
2023-01-29T09:02:37.668Z,5.63
2023-01-29T09:05:05.981Z,5.30
2023-01-29T09:07:33.279Z,4.80
2023-01-29T09:10:03.830Z,4.95
2023-01-29T09:12:30.613Z,5.75
2023-01-29T09:14:57.496Z,6.22
2023-01-29T09:17:24.337Z,5.68
2023-01-29T09:19:53.144Z,5.57
2023-01-29T09:22:20.664Z,6.72
2023-01-29T09:24:47.461Z,6.57
2023-01-29T09:27:14.210Z,6.90
2023-01-29T09:29:41.151Z,6.97
2023-01-29T09:32:07.848Z,5.85
2023-01-29T09:34:35.042Z,6.10
2023-01-29T09:37:01.831Z,6.97
2023-01-29T09:39:28.789Z,5.65
2023-01-29T09:42:00.450Z,5.68
2023-01-29T09:44:45.998Z,6.60
2023-01-29T09:47:15.345Z,6.00
2023-01-29T09:49:47.422Z,5.38
2023-01-29T09:52:28.931Z,5.60
2023-01-29T09:55:10.981Z,6.45
2023-01-29T09:57:56.081Z,6.15
2023-01-29T10:00:30.760Z,6.32
2023-01-29T10:03:03.275Z,6.15
2023-01-29T10:05:32.631Z,5.72
2023-01-29T10:08:02.258Z,6.25
2023-01-29T10:10:36.611Z,6.75
2023-01-29T10:13:26.284Z,6.93
2023-01-29T10:16:28.458Z,7.30
2023-01-29T10:19:04.063Z,6.57
2023-01-29T10:21:36.727Z,7.65
2023-01-29T10:24:08.356Z,6.93
2023-01-29T10:26:37.909Z,6.80
2023-01-29T10:29:07.165Z,7.50
2023-01-29T10:34:11.494Z,6.60
2023-01-29T10:36:47.146Z,6.32
2023-01-29T10:41:45.253Z,6.70
2023-01-29T10:44:28.616Z,6.85
2023-01-29T10:47:06.680Z,7.07
2023-01-29T10:50:17.064Z,6.03
2023-01-29T10:53:33.855Z,7.03
2023-01-29T10:56:22.606Z,7.80
2023-01-29T10:59:29.241Z,7.93
2023-01-29T11:02:00.220Z,6.25
2023-01-29T11:04:27.595Z,7.13
2023-01-29T11:06:54.617Z,7.13
2023-01-29T11:09:24.068Z,8.52
2023-01-29T11:11:54.088Z,7.18
2023-01-29T11:14:42.576Z,6.93
2023-01-29T11:17:20.335Z,8.60
2023-01-29T11:19:48.568Z,8.48
2023-01-29T11:22:34.394Z,7.80
2023-01-29T11:25:18.856Z,7.15
2023-01-29T11:27:56.802Z,8.88
2023-01-29T11:30:24.743Z,8.95
2023-01-29T11:33:22.274Z,7.93
2023-01-29T11:35:49.493Z,7.80
2023-01-29T11:38:16.400Z,7.93
2023-01-29T11:40:43.703Z,6.88
2023-01-29T11:43:21.014Z,7.95
2023-01-29T11:45:54.033Z,8.48
2023-01-29T11:48:22.543Z,7.30
2023-01-29T11:51:05.547Z,7.13
2023-01-29T11:53:37.703Z,7.55
2023-01-29T11:56:07.642Z,7.45
2023-01-29T11:58:35.179Z,7.43
2023-01-29T12:01:03.111Z,8.48
2023-01-29T12:03:33.598Z,7.28
2023-01-29T12:06:03.411Z,7.13
2023-01-29T12:08:39.977Z,7.00
2023-01-29T12:11:09.887Z,7.50
2023-01-29T12:13:37.005Z,8.20
2023-01-29T12:19:33.767Z,7.35
2023-01-29T12:22:08.927Z,8.77
2023-01-29T12:24:41.990Z,6.78
2023-01-29T12:27:17.858Z,7.75
2023-01-29T12:29:59.653Z,7.88
2023-01-29T12:32:41.712Z,8.75
2023-01-29T12:35:19.665Z,8.25
2023-01-29T12:38:03.958Z,8.88
2023-01-29T12:40:47.129Z,7.80
2023-01-29T12:43:17.179Z,8.98
2023-01-29T12:45:47.383Z,8.75
2023-01-29T12:48:19.621Z,8.25
2023-01-29T12:50:47.454Z,7.95
2023-01-29T12:53:33.619Z,9.05
2023-01-29T12:56:03.799Z,9.23
2023-01-29T12:58:37.683Z,8.20
2023-01-29T13:01:31.295Z,7.40
2023-01-29T13:04:12.194Z,7.68
2023-01-29T13:06:42.961Z,7.47
2023-01-29T13:09:14.702Z,8.18
2023-01-29T13:11:54.262Z,8.88
2023-01-29T13:14:36.393Z,9.40
2023-01-29T13:17:26.860Z,7.47
2023-01-29T13:19:55.777Z,6.95
2023-01-29T13:22:29.273Z,7.35
2023-01-29T13:25:04.615Z,8.18
2023-01-29T13:27:34.232Z,7.35
2023-01-29T13:30:01.623Z,8.05
2023-01-29T13:32:30.836Z,8.70
2023-01-29T13:35:00.428Z,8.73
2023-01-29T13:37:34.082Z,6.85
2023-01-29T13:40:02.062Z,7.35
2023-01-29T13:42:45.729Z,6.97
2023-01-29T13:45:26.129Z,8.88
2023-01-29T13:47:53.413Z,43.85
2023-01-29T13:50:30.619Z,11.10
2023-01-29T13:53:02.302Z,13.10
2023-01-29T13:55:36.655Z,24.02
2023-01-29T13:58:04.778Z,14.70
2023-01-29T14:00:34.496Z,13.68
2023-01-29T14:03:01.237Z,16.25
2023-01-29T14:05:31.090Z,11.55
2023-01-29T14:08:02.169Z,10.68
2023-01-29T14:10:34.123Z,11.23
2023-01-29T14:13:03.901Z,9.27
2023-01-29T14:15:35.872Z,13.43
2023-01-29T14:18:13.528Z,9.77
2023-01-29T14:21:02.607Z,10.38
2023-01-29T14:23:41.520Z,10.40
2023-01-29T14:26:53.242Z,10.90
2023-01-29T14:29:34.697Z,10.50
2023-01-29T14:34:51.551Z,9.15
2023-01-29T14:37:21.932Z,8.93
2023-01-29T14:39:50.276Z,9.55
2023-01-29T14:42:29.767Z,9.90
2023-01-29T14:45:08.495Z,8.77
2023-01-29T14:47:35.302Z,10.27
2023-01-29T14:50:23.246Z,12.35
2023-01-29T14:52:53.949Z,10.80
2023-01-29T14:55:38.061Z,11.93
2023-01-29T14:58:05.003Z,9.77
2023-01-29T15:00:35.134Z,10.70
2023-01-29T15:03:03.096Z,11.57
2023-01-29T15:05:33.019Z,16.00
2023-01-29T15:08:30.098Z,19.70
2023-01-29T15:11:18.633Z,15.98
2023-01-29T15:14:04.627Z,12.27
2023-01-29T15:16:46.452Z,11.00
2023-01-29T15:19:36.393Z,9.98
2023-01-29T15:22:17.645Z,9.38
2023-01-29T15:24:45.856Z,8.82
2023-01-29T15:27:18.073Z,9.40
2023-01-29T15:29:49.109Z,10.48
2023-01-29T15:32:27.218Z,14.13
2023-01-29T15:34:55.937Z,12.07
2023-01-29T15:37:33.743Z,16.42
2023-01-29T15:40:17.438Z,12.63
2023-01-29T15:42:46.754Z,14.85
2023-01-29T15:45:27.387Z,18.05
2023-01-29T15:47:57.724Z,15.65
2023-01-29T15:50:24.693Z,28.35
2023-01-29T15:52:52.546Z,24.25
2023-01-29T15:55:22.029Z,20.10
2023-01-29T15:57:49.379Z,15.25
2023-01-29T16:00:25.038Z,15.73
2023-01-29T16:02:52.016Z,15.20
2023-01-29T16:05:22.954Z,16.05
2023-01-29T16:07:50.936Z,13.90
2023-01-29T16:10:20.303Z,15.27
2023-01-29T16:12:51.459Z,12.85
2023-01-29T16:15:33.714Z,13.55
2023-01-29T16:18:02.552Z,13.20
2023-01-29T16:20:37.301Z,13.98
2023-01-29T16:23:05.026Z,12.10
2023-01-29T16:25:32.574Z,11.85
2023-01-29T16:28:03.826Z,14.90
2023-01-29T16:30:30.640Z,16.42
2023-01-29T16:33:02.570Z,14.13
2023-01-29T16:35:29.496Z,14.02
2023-01-29T16:38:02.760Z,13.27
2023-01-29T16:40:33.300Z,13.52
2023-01-29T16:43:28.165Z,18.65
2023-01-29T16:46:06.040Z,13.93
2023-01-29T16:48:34.672Z,19.42
2023-01-29T16:51:13.050Z,17.15
2023-01-29T16:53:40.010Z,16.73
2023-01-29T16:56:08.725Z,20.15
2023-01-29T16:58:35.612Z,17.70
2023-01-29T17:01:06.081Z,19.42
2023-01-29T17:03:34.076Z,21.95
2023-01-29T17:06:11.943Z,28.95
2023-01-29T17:08:41.924Z,21.15
2023-01-29T17:11:23.346Z,16.10
2023-01-29T17:13:50.276Z,18.30
2023-01-29T17:16:34.439Z,20.70
2023-01-29T17:19:01.403Z,16.70
2023-01-29T17:21:29.370Z,12.55
2023-01-29T17:23:56.148Z,12.73
2023-01-29T17:26:23.298Z,13.70
2023-01-29T17:28:51.192Z,12.30
2023-01-29T17:31:18.020Z,13.20
2023-01-29T17:33:45.946Z,13.90
2023-01-29T17:36:15.772Z,15.65
2023-01-29T17:38:42.963Z,14.15
2023-01-29T17:41:18.542Z,12.65
2023-01-29T17:43:45.832Z,12.20
2023-01-29T17:46:15.703Z,11.50
2023-01-29T17:48:43.025Z,13.40
2023-01-29T17:51:13.848Z,19.58
2023-01-29T17:53:46.033Z,11.18
2023-01-29T17:56:21.843Z,11.73
2023-01-29T17:58:48.842Z,10.20
2023-01-29T18:01:15.650Z,12.63
2023-01-29T18:03:42.537Z,12.32
2023-01-29T18:06:10.392Z,12.05
2023-01-29T18:08:38.581Z,12.20
2023-01-29T18:11:06.102Z,11.00
2023-01-29T18:13:33.383Z,11.68
2023-01-29T18:16:00.460Z,12.75
2023-01-29T18:18:27.161Z,13.77
2023-01-29T18:20:53.979Z,25.75
2023-01-29T18:23:21.104Z,42.22
2023-01-29T18:25:47.981Z,31.75
2023-01-29T18:28:17.965Z,32.70
2023-01-29T18:30:47.915Z,33.60
2023-01-29T18:33:15.738Z,28.58
2023-01-29T18:35:48.119Z,17.08
2023-01-29T18:38:15.507Z,16.00
2023-01-29T18:40:42.276Z,15.27
2023-01-29T18:43:09.274Z,22.00
2023-01-29T18:45:36.269Z,25.42
2023-01-29T18:48:03.085Z,31.60
2023-01-29T18:50:29.974Z,27.48
2023-01-29T18:52:56.821Z,33.53
2023-01-29T18:55:23.607Z,14.00
2023-01-29T18:58:25.254Z,13.02
2023-01-29T19:00:41.268Z,12.73
2023-01-29T19:03:08.394Z,12.90
2023-01-29T19:05:35.331Z,11.38
2023-01-29T19:08:02.145Z,12.38
2023-01-29T19:10:28.991Z,21.58
2023-01-29T19:12:55.715Z,17.10
2023-01-29T19:15:22.985Z,16.02
2023-01-29T19:17:51.021Z,15.05
2023-01-29T19:20:18.224Z,13.77
2023-01-29T19:22:45.309Z,12.65
2023-01-29T19:25:12.837Z,10.60
2023-01-29T19:27:39.867Z,11.07
2023-01-29T19:30:07.633Z,11.38
2023-01-29T19:32:34.649Z,14.95
2023-01-29T19:35:01.580Z,12.35
2023-01-29T19:37:28.667Z,16.42
2023-01-29T19:39:55.756Z,11.95
2023-01-29T19:42:22.762Z,10.70
2023-01-29T19:44:51.361Z,11.25
2023-01-29T19:47:18.215Z,12.55
2023-01-29T19:49:45.151Z,11.88
2023-01-29T19:52:38.509Z,10.52
2023-01-29T19:55:16.402Z,8.82
2023-01-29T19:57:43.331Z,10.02
2023-01-29T20:00:12.200Z,9.98
2023-01-29T20:02:39.045Z,12.57
2023-01-29T20:05:07.985Z,8.93
2023-01-29T20:07:36.095Z,11.15
2023-01-29T20:10:03.534Z,12.80
2023-01-29T20:12:30.331Z,11.55
2023-01-29T20:14:57.212Z,18.25
2023-01-29T20:17:23.934Z,15.65
2023-01-29T20:19:50.673Z,14.10
2023-01-29T20:22:17.493Z,14.73
2023-01-29T20:24:44.370Z,11.55
2023-01-29T20:27:11.624Z,11.23
2023-01-29T20:29:39.331Z,12.10
2023-01-29T20:32:08.735Z,11.25
2023-01-29T20:34:36.169Z,12.18
2023-01-29T20:37:03.294Z,11.93
2023-01-29T20:39:29.987Z,12.20
2023-01-29T20:41:57.388Z,9.43
2023-01-29T20:44:25.119Z,10.25
2023-01-29T20:46:52.297Z,10.38
2023-01-29T20:49:19.508Z,8.85
2023-01-29T20:51:49.110Z,9.70
2023-01-29T20:54:15.920Z,8.90
2023-01-29T20:56:44.015Z,12.02
2023-01-29T20:59:11.829Z,9.75
2023-01-29T21:01:38.584Z,8.20
2023-01-29T21:04:05.523Z,11.18
2023-01-29T21:06:32.347Z,10.38
2023-01-29T21:08:59.124Z,10.80
2023-01-29T21:11:26.056Z,10.88
2023-01-29T21:13:57.623Z,10.07
2023-01-29T21:16:26.382Z,10.52
2023-01-29T21:19:03.395Z,9.68
2023-01-29T21:21:30.255Z,7.32
2023-01-29T21:23:58.281Z,8.75
2023-01-29T21:26:25.213Z,7.32
2023-01-29T21:28:52.112Z,5.70
2023-01-29T21:31:18.981Z,6.35
2023-01-29T21:33:45.769Z,6.53
2023-01-29T21:36:12.700Z,6.78
2023-01-29T21:38:40.119Z,8.23
2023-01-29T21:41:09.751Z,8.00
2023-01-29T21:43:37.080Z,6.38
2023-01-29T21:46:11.544Z,7.43
2023-01-29T21:48:39.407Z,6.63
2023-01-29T21:51:06.526Z,10.45
2023-01-29T21:53:33.607Z,9.98
2023-01-29T21:56:01.929Z,9.02
2023-01-29T21:58:28.924Z,10.32
2023-01-29T22:00:55.706Z,10.70
2023-01-29T22:03:22.612Z,10.10
2023-01-29T22:05:50.235Z,14.48
2023-01-29T22:08:17.931Z,11.43
2023-01-29T22:10:45.097Z,11.02
2023-01-29T22:13:12.064Z,7.30
2023-01-29T22:15:38.812Z,9.48
2023-01-29T22:18:05.764Z,8.05
2023-01-29T22:20:32.630Z,7.10
2023-01-29T22:23:00.685Z,7.50
2023-01-29T22:25:27.934Z,6.25
2023-01-29T22:27:55.101Z,6.20
2023-01-29T22:30:23.400Z,7.45
2023-01-29T22:32:50.933Z,6.95
2023-01-29T22:35:17.835Z,7.20
2023-01-29T22:37:45.201Z,7.70
2023-01-29T22:40:13.116Z,6.63
2023-01-29T22:42:40.070Z,6.50
2023-01-29T22:45:08.141Z,6.43
2023-01-29T22:47:34.940Z,6.60
2023-01-29T22:50:01.880Z,6.65
2023-01-29T22:52:28.791Z,7.07
2023-01-29T22:54:55.501Z,7.20
2023-01-29T22:57:22.350Z,4.70
2023-01-29T22:59:49.160Z,7.30
2023-01-29T23:02:15.991Z,7.32
2023-01-29T23:04:42.907Z,6.28
2023-01-29T23:07:09.751Z,7.30
2023-01-29T23:09:36.524Z,6.88
2023-01-29T23:12:03.462Z,6.72
2023-01-29T23:14:30.196Z,6.68
2023-01-29T23:16:57.044Z,5.93
2023-01-29T23:19:23.862Z,5.55
2023-01-29T23:21:50.764Z,6.18
2023-01-29T23:24:17.695Z,6.72
2023-01-29T23:27:03.165Z,6.30
2023-01-29T23:29:30.147Z,6.45
2023-01-29T23:31:56.904Z,6.78
2023-01-29T23:34:24.054Z,7.35
2023-01-29T23:36:50.884Z,7.43
2023-01-29T23:39:17.781Z,6.72
2023-01-29T23:41:44.567Z,7.38
2023-01-29T23:44:11.432Z,6.18
2023-01-29T23:46:38.257Z,5.35
2023-01-29T23:49:05.041Z,6.30
2023-01-29T23:51:31.891Z,6.28
2023-01-29T23:53:58.736Z,5.75
2023-01-29T23:56:25.771Z,6.32
2023-01-29T23:58:54.524Z,6.07
